createdAt,value
2022-09-07T00:01:53.964Z,6.32
2022-09-07T00:05:16.003Z,7.28
2022-09-07T00:08:39.230Z,6.72
2022-09-07T00:12:01.351Z,6.85
2022-09-07T00:15:23.315Z,6.10
2022-09-07T00:18:46.520Z,6.15
2022-09-07T00:22:08.683Z,5.43
2022-09-07T00:25:32.125Z,6.13
2022-09-07T00:28:58.228Z,6.05
2022-09-07T00:32:20.508Z,5.72
2022-09-07T00:35:42.957Z,4.70
2022-09-07T00:39:05.252Z,5.25
2022-09-07T00:42:27.231Z,4.75
2022-09-07T00:45:49.233Z,5.20
2022-09-07T00:49:16.398Z,5.10
2022-09-07T00:52:39.252Z,4.85
2022-09-07T00:56:02.706Z,5.13
2022-09-07T00:59:32.096Z,5.32
2022-09-07T01:02:57.305Z,5.37
2022-09-07T01:06:21.409Z,5.38
2022-09-07T01:09:44.175Z,5.63
2022-09-07T01:13:06.269Z,5.88
2022-09-07T01:16:46.251Z,5.85
2022-09-07T01:20:37.317Z,6.03
2022-09-07T01:24:14.362Z,5.00
2022-09-07T01:27:52.140Z,5.65
2022-09-07T01:31:27.700Z,5.53
2022-09-07T01:34:53.753Z,5.38
2022-09-07T01:38:32.766Z,5.30
2022-09-07T01:42:23.756Z,6.18
2022-09-07T01:45:47.047Z,6.55
2022-09-07T01:49:15.738Z,5.35
2022-09-07T01:52:47.471Z,7.13
2022-09-07T01:56:21.177Z,6.47
2022-09-07T01:59:53.030Z,6.35
2022-09-07T02:03:19.978Z,6.38
2022-09-07T02:07:06.825Z,6.88
2022-09-07T02:10:31.571Z,6.25
2022-09-07T02:14:16.345Z,6.15
2022-09-07T02:17:44.613Z,6.13
2022-09-07T02:21:10.334Z,5.47
2022-09-07T02:24:37.974Z,5.22
2022-09-07T02:28:08.161Z,5.90
2022-09-07T02:31:30.246Z,4.95
2022-09-07T02:34:52.366Z,4.82
2022-09-07T02:38:14.541Z,4.65
2022-09-07T02:41:40.204Z,4.43
2022-09-07T02:45:06.635Z,5.10
2022-09-07T02:48:49.787Z,4.38
2022-09-07T02:52:47.465Z,3.92
2022-09-07T02:56:19.811Z,4.05
2022-09-07T03:00:00.547Z,3.00
2022-09-07T03:03:40.319Z,2.80
2022-09-07T03:07:19.370Z,2.45
2022-09-07T03:10:42.960Z,2.53
2022-09-07T03:14:33.485Z,4.20
2022-09-07T03:17:55.517Z,5.50
2022-09-07T03:21:17.481Z,5.22
2022-09-07T03:24:39.576Z,5.97
2022-09-07T03:28:01.673Z,9.15
2022-09-07T03:31:23.889Z,9.50
2022-09-07T03:34:48.430Z,10.15
2022-09-07T03:38:10.757Z,10.10
2022-09-07T03:41:33.615Z,10.23
2022-09-07T03:44:55.543Z,8.60
2022-09-07T03:48:17.560Z,10.52
2022-09-07T03:51:39.612Z,10.48
2022-09-07T03:55:01.636Z,10.40
2022-09-07T03:58:23.656Z,10.15
2022-09-07T04:01:45.762Z,10.90
2022-09-07T04:05:08.217Z,9.95
2022-09-07T04:08:33.025Z,9.75
2022-09-07T04:11:55.031Z,9.77
2022-09-07T04:15:17.050Z,10.52
2022-09-07T04:18:39.197Z,10.05
2022-09-07T04:22:01.222Z,9.63
2022-09-07T04:25:23.341Z,9.93
2022-09-07T04:28:46.012Z,9.57
2022-09-07T04:32:11.420Z,10.05
2022-09-07T04:35:38.203Z,10.13
2022-09-07T04:39:02.918Z,10.63
2022-09-07T04:42:24.929Z,11.40
2022-09-07T04:45:46.996Z,10.23
2022-09-07T04:49:11.080Z,10.32
2022-09-07T04:52:33.537Z,17.30
2022-09-07T04:55:57.659Z,14.80
2022-09-07T04:59:19.665Z,17.27
2022-09-07T05:02:42.631Z,15.02
2022-09-07T05:06:06.020Z,13.73
2022-09-07T05:09:28.049Z,12.50
2022-09-07T05:12:50.286Z,12.45
2022-09-07T05:16:15.786Z,13.27
2022-09-07T05:19:37.867Z,12.90
2022-09-07T05:22:59.872Z,12.27
2022-09-07T05:26:24.080Z,12.07
2022-09-07T05:30:03.975Z,12.57
2022-09-07T05:37:09.363Z,12.60
2022-09-07T05:40:35.123Z,13.40
2022-09-07T05:47:41.353Z,13.00
2022-09-07T05:51:05.175Z,12.10
2022-09-07T05:54:27.871Z,12.57
2022-09-07T05:57:50.787Z,12.88
2022-09-07T06:01:13.460Z,15.90
2022-09-07T06:04:35.495Z,14.95
2022-09-07T06:07:57.481Z,15.95
2022-09-07T06:11:22.026Z,17.77
2022-09-07T06:14:44.041Z,14.75
2022-09-07T06:18:06.204Z,12.57
2022-09-07T06:21:28.179Z,11.63
2022-09-07T06:24:51.469Z,12.82
2022-09-07T06:28:40.640Z,13.65
2022-09-07T06:35:55.733Z,13.88
2022-09-07T06:39:17.741Z,13.32
2022-09-07T06:42:39.966Z,12.98
2022-09-07T06:49:46.949Z,14.43
2022-09-07T06:56:51.006Z,21.42
2022-09-07T07:00:13.504Z,22.10
2022-09-07T07:03:37.029Z,23.05
2022-09-07T07:07:02.981Z,22.13
2022-09-07T07:10:25.439Z,19.95
2022-09-07T07:13:47.817Z,18.27
2022-09-07T07:17:09.836Z,18.15
2022-09-07T07:20:32.179Z,14.70
2022-09-07T07:23:54.470Z,14.52
2022-09-07T07:27:17.252Z,13.77
2022-09-07T07:30:39.265Z,12.52
2022-09-07T07:34:01.342Z,12.70
2022-09-07T07:37:27.791Z,13.18
2022-09-07T07:44:36.468Z,12.80
2022-09-07T07:47:58.532Z,10.50
2022-09-07T07:51:21.039Z,11.02
2022-09-07T07:54:43.827Z,9.52
2022-09-07T07:58:05.808Z,9.02
2022-09-07T08:01:27.870Z,8.65
2022-09-07T08:04:50.431Z,8.55
2022-09-07T08:08:12.426Z,9.00
2022-09-07T08:11:35.519Z,9.05
2022-09-07T08:14:57.544Z,9.13
2022-09-07T08:18:19.514Z,7.18
2022-09-07T08:21:41.488Z,7.93
2022-09-07T08:25:03.629Z,8.93
2022-09-07T08:28:30.798Z,7.53
2022-09-07T08:31:52.771Z,6.75
2022-09-07T08:35:14.820Z,7.60
2022-09-07T08:38:37.820Z,7.10
2022-09-07T08:42:20.521Z,7.97
2022-09-07T08:45:55.489Z,7.47
2022-09-07T08:49:33.724Z,8.30
2022-09-07T08:53:11.278Z,7.60
2022-09-07T08:57:20.502Z,8.90
2022-09-07T09:00:23.675Z,7.50
2022-09-07T09:07:56.254Z,7.35
2022-09-07T09:11:36.626Z,7.60
2022-09-07T09:18:38.870Z,7.45
2022-09-07T09:22:18.964Z,8.55
2022-09-07T09:25:57.825Z,7.82
2022-09-07T09:29:21.998Z,6.75
2022-09-07T09:32:46.015Z,6.80
2022-09-07T09:36:25.683Z,7.18
2022-09-07T09:40:00.657Z,5.50
2022-09-07T09:43:29.482Z,5.57
2022-09-07T09:54:51.032Z,7.38
2022-09-07T10:06:17.186Z,2.78
2022-09-07T10:09:52.943Z,2.97
2022-09-07T10:13:27.150Z,2.95
2022-09-07T10:16:49.253Z,3.10
2022-09-07T10:20:17.039Z,2.90
2022-09-07T10:23:39.167Z,2.45
2022-09-07T10:27:01.332Z,2.58
2022-09-07T10:30:23.735Z,2.47
2022-09-07T10:37:54.945Z,3.50
2022-09-07T10:41:19.336Z,2.55
2022-09-07T10:45:00.054Z,2.60
2022-09-07T10:48:51.128Z,2.13
2022-09-07T10:52:13.065Z,2.85
2022-09-07T10:55:43.112Z,3.22
2022-09-07T10:59:24.002Z,3.08
2022-09-07T11:06:50.433Z,2.47
2022-09-07T11:10:32.627Z,2.67
2022-09-07T11:14:12.472Z,2.50
2022-09-07T11:17:44.109Z,2.78
2022-09-07T11:21:56.213Z,2.83
2022-09-07T11:25:52.720Z,2.92
2022-09-07T11:34:25.270Z,2.80
2022-09-07T11:37:59.766Z,3.40
2022-09-07T11:41:31.870Z,2.72
2022-09-07T11:45:22.622Z,3.00
2022-09-07T11:48:58.074Z,3.10
2022-09-07T11:52:26.187Z,2.90
2022-09-07T11:55:54.908Z,3.22
2022-09-07T11:59:36.893Z,2.78
2022-09-07T12:03:25.365Z,3.20
2022-09-07T12:07:04.911Z,2.70
2022-09-07T12:10:35.731Z,3.03
2022-09-07T12:14:25.106Z,2.67
2022-09-07T12:18:01.994Z,3.10
2022-09-07T12:21:42.055Z,2.83
2022-09-07T12:25:09.540Z,2.95
2022-09-07T12:28:34.806Z,3.50
2022-09-07T12:32:08.260Z,3.08
2022-09-07T12:35:42.175Z,3.53
2022-09-07T12:40:16.728Z,3.30
2022-09-07T12:43:52.428Z,3.50
2022-09-07T12:47:14.513Z,4.20
2022-09-07T12:50:59.015Z,4.20
2022-09-07T12:54:23.718Z,4.13
2022-09-07T12:58:48.011Z,4.72
2022-09-07T13:13:03.954Z,4.82
2022-09-07T13:17:33.002Z,4.32
2022-09-07T13:21:54.905Z,5.10
2022-09-07T13:25:26.555Z,5.70
2022-09-07T13:29:02.233Z,5.50
2022-09-07T13:36:59.621Z,4.88
2022-09-07T13:41:17.066Z,4.55
2022-09-07T13:45:27.865Z,4.10
2022-09-07T13:58:19.335Z,4.97
2022-09-07T14:01:47.787Z,4.88
2022-09-07T14:05:17.409Z,4.70
2022-09-07T14:08:39.970Z,4.95
2022-09-07T14:12:06.518Z,5.50
2022-09-07T14:15:42.863Z,4.65
2022-09-07T14:19:36.543Z,4.97
2022-09-07T14:22:59.800Z,4.88
2022-09-07T14:26:23.910Z,4.97
2022-09-07T14:29:45.897Z,4.20
2022-09-07T14:33:20.232Z,4.43
2022-09-07T14:36:46.285Z,4.20
2022-09-07T14:40:22.183Z,3.70
2022-09-07T14:43:58.531Z,4.20
2022-09-07T14:47:30.563Z,3.70
2022-09-07T14:51:05.623Z,3.80
2022-09-07T14:54:35.222Z,4.25
2022-09-07T14:58:13.584Z,4.32
2022-09-07T15:01:38.962Z,4.13
2022-09-07T15:05:23.548Z,4.10
2022-09-07T15:08:49.274Z,4.47
2022-09-07T15:12:18.229Z,3.88
2022-09-07T15:15:41.252Z,4.43
2022-09-07T15:19:21.064Z,4.47
2022-09-07T15:22:43.085Z,4.60
2022-09-07T15:26:05.541Z,3.92
2022-09-07T15:29:29.165Z,4.88
2022-09-07T15:32:51.901Z,5.78
2022-09-07T15:36:15.997Z,6.00
2022-09-07T15:39:41.969Z,5.65
2022-09-07T15:43:16.337Z,5.50
2022-09-07T15:47:41.970Z,6.00
2022-09-07T15:50:25.245Z,5.25
2022-09-07T16:04:55.748Z,5.28
2022-09-07T16:08:25.332Z,4.15
2022-09-07T16:11:50.110Z,4.40
2022-09-07T16:15:13.116Z,4.45
2022-09-07T16:18:35.913Z,4.60
2022-09-07T16:21:58.174Z,4.70
2022-09-07T16:25:20.278Z,4.90
2022-09-07T16:28:45.302Z,4.10
2022-09-07T16:36:00.244Z,4.20
2022-09-07T16:39:23.117Z,4.57
2022-09-07T16:42:47.246Z,4.38
2022-09-07T16:46:14.167Z,4.80
2022-09-07T16:49:36.227Z,4.90
2022-09-07T16:52:58.167Z,4.57
2022-09-07T16:56:23.299Z,4.50
2022-09-07T16:59:45.987Z,4.40
2022-09-07T17:03:11.496Z,4.57
2022-09-07T17:06:33.692Z,5.05
2022-09-07T17:09:55.779Z,5.68
2022-09-07T17:13:18.190Z,5.35
2022-09-07T17:16:41.333Z,5.20
2022-09-07T17:20:03.870Z,5.07
2022-09-07T17:23:25.999Z,4.75
2022-09-07T17:26:48.378Z,5.18
2022-09-07T17:30:10.870Z,5.25
2022-09-07T17:33:34.732Z,5.32
2022-09-07T17:36:56.840Z,5.78
2022-09-07T17:40:19.351Z,5.47
2022-09-07T17:43:45.607Z,5.18
2022-09-07T17:47:08.085Z,4.75
2022-09-07T17:50:30.068Z,6.70
2022-09-07T17:53:58.852Z,6.03
2022-09-07T17:57:21.384Z,6.40
2022-09-07T18:00:45.801Z,6.22
2022-09-07T18:04:09.190Z,6.32
2022-09-07T18:07:32.820Z,6.78
2022-09-07T18:14:37.406Z,8.73
2022-09-07T18:17:59.874Z,7.97
2022-09-07T18:21:25.840Z,8.07
2022-09-07T18:24:47.774Z,8.25
2022-09-07T18:31:52.321Z,8.30
2022-09-07T18:35:14.730Z,8.38
2022-09-07T18:38:36.899Z,7.43
2022-09-07T18:41:59.363Z,6.88
2022-09-07T18:45:29.299Z,6.93
2022-09-07T18:48:54.239Z,7.15
2022-09-07T18:56:21.672Z,6.18
2022-09-07T18:59:44.341Z,5.97
2022-09-07T19:03:08.603Z,6.70
2022-09-07T19:06:31.060Z,5.88
2022-09-07T19:09:54.993Z,6.43
2022-09-07T19:13:20.161Z,8.13
2022-09-07T19:16:45.242Z,6.47
2022-09-07T19:20:08.006Z,7.10
2022-09-07T19:23:30.244Z,6.25
2022-09-07T19:26:56.850Z,6.47
2022-09-07T19:30:21.948Z,6.47
2022-09-07T19:33:44.081Z,6.53
2022-09-07T19:37:07.902Z,6.70
2022-09-07T19:44:19.074Z,7.63
2022-09-07T19:47:42.261Z,6.65
2022-09-07T19:51:06.852Z,6.35
2022-09-07T19:54:29.148Z,6.05
2022-09-07T19:57:53.184Z,6.47
2022-09-07T20:01:21.960Z,6.72
2022-09-07T20:04:44.743Z,6.00
2022-09-07T20:08:08.918Z,6.40
2022-09-07T20:11:33.060Z,6.28
2022-09-07T20:14:56.722Z,5.75
2022-09-07T20:18:20.006Z,5.97
2022-09-07T20:21:43.430Z,5.45
2022-09-07T20:25:10.208Z,5.50
2022-09-07T20:28:41.890Z,6.45
2022-09-07T20:32:05.069Z,5.67
2022-09-07T20:35:27.699Z,5.38
2022-09-07T20:38:53.836Z,5.47
2022-09-07T20:42:16.673Z,5.47
2022-09-07T20:45:39.063Z,4.60
2022-09-07T20:49:02.136Z,4.88
2022-09-07T20:52:30.876Z,5.13
2022-09-07T20:56:04.726Z,5.35
2022-09-07T20:59:26.917Z,6.40
2022-09-07T21:02:49.895Z,5.60
2022-09-07T21:06:12.308Z,6.22
2022-09-07T21:10:06.627Z,5.70
2022-09-07T21:14:23.225Z,5.68
2022-09-07T21:17:49.487Z,5.57
2022-09-07T21:22:22.169Z,5.88
2022-09-07T21:30:16.270Z,7.50
2022-09-07T21:33:53.683Z,6.47
2022-09-07T21:37:15.857Z,5.53
2022-09-07T21:40:41.329Z,5.68
2022-09-07T21:44:04.654Z,5.95
2022-09-07T21:47:26.888Z,5.32
2022-09-07T21:50:49.100Z,5.13
2022-09-07T21:54:11.543Z,4.80
2022-09-07T21:57:33.527Z,4.55
2022-09-07T22:00:57.040Z,5.25
2022-09-07T22:04:19.192Z,4.57
2022-09-07T22:07:41.760Z,4.90
2022-09-07T22:11:12.017Z,4.30
2022-09-07T22:17:56.148Z,3.80
2022-09-07T22:21:21.983Z,4.00
2022-09-07T22:24:44.019Z,4.65
2022-09-07T22:28:05.961Z,5.50
2022-09-07T22:31:31.520Z,5.07
2022-09-07T22:34:53.651Z,5.80
2022-09-07T22:38:15.632Z,6.80
2022-09-07T22:41:38.673Z,6.30
2022-09-07T22:45:00.643Z,7.40
2022-09-07T22:48:23.085Z,6.13
2022-09-07T22:51:45.351Z,6.75
2022-09-07T22:55:07.670Z,7.70
2022-09-07T22:58:30.106Z,6.70
2022-09-07T23:01:52.111Z,6.90
2022-09-07T23:05:14.486Z,5.43
2022-09-07T23:08:36.514Z,5.43
2022-09-07T23:11:58.465Z,5.35
2022-09-07T23:15:21.002Z,6.78
2022-09-07T23:18:42.977Z,6.88
2022-09-07T23:22:05.458Z,7.40
2022-09-07T23:25:28.392Z,8.05
2022-09-07T23:28:54.673Z,8.50
2022-09-07T23:32:16.554Z,7.10
2022-09-07T23:35:38.482Z,6.50
2022-09-07T23:39:01.143Z,6.60
2022-09-07T23:42:23.085Z,6.18
2022-09-07T23:45:45.033Z,6.65
2022-09-07T23:49:07.003Z,5.60
2022-09-07T23:52:29.690Z,5.35
2022-09-07T23:55:53.193Z,5.43
2022-09-07T23:59:15.245Z,5.38
